sensor_id;sensor_type;location;lat;lon;timestamp;P1;durP1;ratioP1;P2;durP2;ratioP2
49812;SDS011;35706;52.100;5.056;2022-08-19T00:00:35;1.08;;;0.50;;
49812;SDS011;35706;52.100;5.056;2022-08-19T00:03:01;1.50;;;0.65;;
49812;SDS011;35706;52.100;5.056;2022-08-19T00:05:28;2.00;;;0.60;;
49812;SDS011;35706;52.100;5.056;2022-08-19T00:07:53;1.23;;;0.60;;
49812;SDS011;35706;52.100;5.056;2022-08-19T00:10:19;1.38;;;0.70;;
49812;SDS011;35706;52.100;5.056;2022-08-19T00:12:45;1.67;;;0.60;;
49812;SDS011;35706;52.100;5.056;2022-08-19T00:15:11;5.22;;;0.65;;
49812;SDS011;35706;52.100;5.056;2022-08-19T00:17:39;1.70;;;0.70;;
49812;SDS011;35706;52.100;5.056;2022-08-19T00:20:06;1.65;;;0.70;;
49812;SDS011;35706;52.100;5.056;2022-08-19T00:22:32;1.10;;;0.60;;
49812;SDS011;35706;52.100;5.056;2022-08-19T00:24:58;2.95;;;0.80;;
49812;SDS011;35706;52.100;5.056;2022-08-19T00:27:23;1.15;;;0.70;;
49812;SDS011;35706;52.100;5.056;2022-08-19T00:29:49;1.45;;;0.70;;
49812;SDS011;35706;52.100;5.056;2022-08-19T00:32:14;1.00;;;0.70;;
49812;SDS011;35706;52.100;5.056;2022-08-19T00:34:39;1.77;;;0.80;;
49812;SDS011;35706;52.100;5.056;2022-08-19T00:37:05;1.55;;;1.00;;
49812;SDS011;35706;52.100;5.056;2022-08-19T00:39:30;2.20;;;1.00;;
49812;SDS011;35706;52.100;5.056;2022-08-19T00:41:55;2.80;;;1.73;;
49812;SDS011;35706;52.100;5.056;2022-08-19T00:44:23;4.45;;;1.88;;
49812;SDS011;35706;52.100;5.056;2022-08-19T00:46:51;2.47;;;1.33;;
49812;SDS011;35706;52.100;5.056;2022-08-19T00:49:19;3.08;;;1.45;;
49812;SDS011;35706;52.100;5.056;2022-08-19T00:51:50;3.60;;;2.05;;
49812;SDS011;35706;52.100;5.056;2022-08-19T00:54:18;3.47;;;3.28;;
49812;SDS011;35706;52.100;5.056;2022-08-19T00:56:44;3.03;;;2.33;;
49812;SDS011;35706;52.100;5.056;2022-08-19T00:59:11;5.18;;;4.25;;
49812;SDS011;35706;52.100;5.056;2022-08-19T01:01:39;7.35;;;4.18;;
49812;SDS011;35706;52.100;5.056;2022-08-19T01:04:06;8.00;;;5.38;;
49812;SDS011;35706;52.100;5.056;2022-08-19T01:06:33;11.82;;;10.27;;
49812;SDS011;35706;52.100;5.056;2022-08-19T01:09:00;12.80;;;10.85;;
49812;SDS011;35706;52.100;5.056;2022-08-19T01:11:26;18.38;;;14.65;;
49812;SDS011;35706;52.100;5.056;2022-08-19T01:13:53;88.88;;;67.88;;
49812;SDS011;35706;52.100;5.056;2022-08-19T01:16:20;24.35;;;18.75;;
49812;SDS011;35706;52.100;5.056;2022-08-19T01:18:47;16.77;;;13.85;;
49812;SDS011;35706;52.100;5.056;2022-08-19T01:21:18;15.93;;;13.25;;
49812;SDS011;35706;52.100;5.056;2022-08-19T01:23:50;13.18;;;11.77;;
49812;SDS011;35706;52.100;5.056;2022-08-19T01:26:17;15.82;;;13.93;;
49812;SDS011;35706;52.100;5.056;2022-08-19T01:28:46;17.63;;;13.75;;
49812;SDS011;35706;52.100;5.056;2022-08-19T01:31:14;15.30;;;13.48;;
49812;SDS011;35706;52.100;5.056;2022-08-19T01:33:41;15.98;;;13.57;;
49812;SDS011;35706;52.100;5.056;2022-08-19T01:36:08;24.20;;;14.90;;
49812;SDS011;35706;52.100;5.056;2022-08-19T01:38:39;17.50;;;13.95;;
49812;SDS011;35706;52.100;5.056;2022-08-19T01:41:08;18.48;;;14.95;;
49812;SDS011;35706;52.100;5.056;2022-08-19T01:43:34;16.55;;;14.52;;
49812;SDS011;35706;52.100;5.056;2022-08-19T01:45:59;17.92;;;13.85;;
49812;SDS011;35706;52.100;5.056;2022-08-19T01:48:26;14.50;;;12.88;;
49812;SDS011;35706;52.100;5.056;2022-08-19T01:50:51;16.73;;;14.15;;
49812;SDS011;35706;52.100;5.056;2022-08-19T01:53:17;18.17;;;14.38;;
49812;SDS011;35706;52.100;5.056;2022-08-19T01:55:42;17.23;;;14.70;;
49812;SDS011;35706;52.100;5.056;2022-08-19T01:58:16;18.00;;;13.70;;
49812;SDS011;35706;52.100;5.056;2022-08-19T02:00:45;17.13;;;12.65;;
49812;SDS011;35706;52.100;5.056;2022-08-19T02:03:30;18.00;;;14.25;;
49812;SDS011;35706;52.100;5.056;2022-08-19T02:06:16;15.35;;;12.63;;
49812;SDS011;35706;52.100;5.056;2022-08-19T02:09:02;16.23;;;14.52;;
49812;SDS011;35706;52.100;5.056;2022-08-19T02:11:49;17.70;;;14.02;;
49812;SDS011;35706;52.100;5.056;2022-08-19T02:14:35;16.48;;;13.93;;
49812;SDS011;35706;52.100;5.056;2022-08-19T02:17:21;15.23;;;13.55;;
49812;SDS011;35706;52.100;5.056;2022-08-19T02:20:08;15.57;;;13.90;;
49812;SDS011;35706;52.100;5.056;2022-08-19T02:22:54;17.30;;;13.43;;
49812;SDS011;35706;52.100;5.056;2022-08-19T02:25:40;16.05;;;12.73;;
49812;SDS011;35706;52.100;5.056;2022-08-19T02:28:27;18.25;;;13.45;;
49812;SDS011;35706;52.100;5.056;2022-08-19T02:31:14;14.98;;;12.23;;
49812;SDS011;35706;52.100;5.056;2022-08-19T02:34:02;19.80;;;13.40;;
49812;SDS011;35706;52.100;5.056;2022-08-19T02:36:48;18.38;;;13.88;;
49812;SDS011;35706;52.100;5.056;2022-08-19T02:39:33;15.77;;;12.43;;
49812;SDS011;35706;52.100;5.056;2022-08-19T02:42:19;17.02;;;12.48;;
49812;SDS011;35706;52.100;5.056;2022-08-19T02:45:05;12.60;;;11.15;;
49812;SDS011;35706;52.100;5.056;2022-08-19T02:47:50;17.02;;;12.05;;
49812;SDS011;35706;52.100;5.056;2022-08-19T02:50:39;13.40;;;11.90;;
49812;SDS011;35706;52.100;5.056;2022-08-19T02:53:26;18.67;;;12.27;;
49812;SDS011;35706;52.100;5.056;2022-08-19T02:56:13;20.10;;;14.27;;
49812;SDS011;35706;52.100;5.056;2022-08-19T02:58:58;14.38;;;12.32;;
49812;SDS011;35706;52.100;5.056;2022-08-19T03:01:44;16.95;;;13.18;;
49812;SDS011;35706;52.100;5.056;2022-08-19T03:04:30;15.80;;;12.30;;
49812;SDS011;35706;52.100;5.056;2022-08-19T03:07:17;19.48;;;14.02;;
49812;SDS011;35706;52.100;5.056;2022-08-19T03:10:04;17.33;;;14.38;;
49812;SDS011;35706;52.100;5.056;2022-08-19T03:12:50;22.35;;;13.52;;
49812;SDS011;35706;52.100;5.056;2022-08-19T03:15:38;17.25;;;13.73;;
49812;SDS011;35706;52.100;5.056;2022-08-19T03:18:25;18.17;;;13.52;;
49812;SDS011;35706;52.100;5.056;2022-08-19T03:21:14;16.17;;;12.65;;
49812;SDS011;35706;52.100;5.056;2022-08-19T03:24:11;17.60;;;13.55;;
49812;SDS011;35706;52.100;5.056;2022-08-19T03:26:57;16.55;;;12.90;;
49812;SDS011;35706;52.100;5.056;2022-08-19T03:29:43;18.63;;;14.82;;
49812;SDS011;35706;52.100;5.056;2022-08-19T03:32:30;17.92;;;13.82;;
49812;SDS011;35706;52.100;5.056;2022-08-19T03:35:15;21.45;;;14.55;;
49812;SDS011;35706;52.100;5.056;2022-08-19T03:38:01;19.15;;;14.40;;
49812;SDS011;35706;52.100;5.056;2022-08-19T03:40:47;22.33;;;14.15;;
49812;SDS011;35706;52.100;5.056;2022-08-19T03:43:33;18.02;;;14.02;;
49812;SDS011;35706;52.100;5.056;2022-08-19T03:46:27;19.35;;;14.02;;
49812;SDS011;35706;52.100;5.056;2022-08-19T03:49:15;21.65;;;14.10;;
49812;SDS011;35706;52.100;5.056;2022-08-19T03:52:01;19.13;;;13.68;;
49812;SDS011;35706;52.100;5.056;2022-08-19T03:54:47;17.70;;;14.35;;
49812;SDS011;35706;52.100;5.056;2022-08-19T03:57:33;19.63;;;14.50;;
49812;SDS011;35706;52.100;5.056;2022-08-19T04:00:19;19.95;;;16.13;;
49812;SDS011;35706;52.100;5.056;2022-08-19T04:03:05;20.33;;;15.48;;
49812;SDS011;35706;52.100;5.056;2022-08-19T04:05:51;23.92;;;15.57;;
49812;SDS011;35706;52.100;5.056;2022-08-19T04:08:36;24.77;;;15.32;;
49812;SDS011;35706;52.100;5.056;2022-08-19T04:11:23;20.42;;;15.13;;
49812;SDS011;35706;52.100;5.056;2022-08-19T04:14:12;27.27;;;17.35;;
49812;SDS011;35706;52.100;5.056;2022-08-19T04:17:00;26.52;;;16.65;;
49812;SDS011;35706;52.100;5.056;2022-08-19T04:19:47;25.77;;;17.83;;
49812;SDS011;35706;52.100;5.056;2022-08-19T04:22:32;25.33;;;18.10;;
49812;SDS011;35706;52.100;5.056;2022-08-19T04:25:18;26.25;;;16.85;;
49812;SDS011;35706;52.100;5.056;2022-08-19T04:28:03;26.60;;;17.27;;
49812;SDS011;35706;52.100;5.056;2022-08-19T04:30:52;28.67;;;18.58;;
49812;SDS011;35706;52.100;5.056;2022-08-19T04:33:39;28.55;;;17.52;;
49812;SDS011;35706;52.100;5.056;2022-08-19T04:36:29;32.00;;;19.50;;
49812;SDS011;35706;52.100;5.056;2022-08-19T04:39:18;29.35;;;19.02;;
49812;SDS011;35706;52.100;5.056;2022-08-19T04:42:08;32.50;;;20.05;;
49812;SDS011;35706;52.100;5.056;2022-08-19T04:45:13;32.92;;;21.88;;
49812;SDS011;35706;52.100;5.056;2022-08-19T04:47:59;36.30;;;21.08;;
49812;SDS011;35706;52.100;5.056;2022-08-19T04:50:47;34.03;;;21.13;;
49812;SDS011;35706;52.100;5.056;2022-08-19T04:53:34;38.47;;;21.45;;
49812;SDS011;35706;52.100;5.056;2022-08-19T04:56:21;33.08;;;20.98;;
49812;SDS011;35706;52.100;5.056;2022-08-19T04:59:07;31.60;;;21.20;;
49812;SDS011;35706;52.100;5.056;2022-08-19T05:01:53;31.17;;;20.35;;
49812;SDS011;35706;52.100;5.056;2022-08-19T05:04:39;36.10;;;21.65;;
49812;SDS011;35706;52.100;5.056;2022-08-19T05:07:25;36.83;;;22.80;;
49812;SDS011;35706;52.100;5.056;2022-08-19T05:10:11;40.97;;;23.33;;
49812;SDS011;35706;52.100;5.056;2022-08-19T05:12:57;39.17;;;23.30;;
49812;SDS011;35706;52.100;5.056;2022-08-19T05:15:44;37.83;;;23.98;;
49812;SDS011;35706;52.100;5.056;2022-08-19T05:18:38;40.80;;;24.05;;
49812;SDS011;35706;52.100;5.056;2022-08-19T05:21:43;42.75;;;25.98;;
49812;SDS011;35706;52.100;5.056;2022-08-19T05:24:48;43.15;;;25.30;;
49812;SDS011;35706;52.100;5.056;2022-08-19T05:27:34;49.22;;;28.38;;
49812;SDS011;35706;52.100;5.056;2022-08-19T05:30:20;46.17;;;25.17;;
49812;SDS011;35706;52.100;5.056;2022-08-19T05:33:06;51.30;;;27.45;;
49812;SDS011;35706;52.100;5.056;2022-08-19T05:35:57;47.30;;;26.42;;
49812;SDS011;35706;52.100;5.056;2022-08-19T05:38:42;54.45;;;28.48;;
49812;SDS011;35706;52.100;5.056;2022-08-19T05:41:28;60.65;;;32.00;;
49812;SDS011;35706;52.100;5.056;2022-08-19T05:44:14;48.42;;;29.15;;
49812;SDS011;35706;52.100;5.056;2022-08-19T05:47:03;60.22;;;31.38;;
49812;SDS011;35706;52.100;5.056;2022-08-19T05:49:50;57.28;;;29.73;;
49812;SDS011;35706;52.100;5.056;2022-08-19T05:52:36;58.75;;;30.95;;
49812;SDS011;35706;52.100;5.056;2022-08-19T05:55:23;60.30;;;31.40;;
49812;SDS011;35706;52.100;5.056;2022-08-19T05:58:09;61.00;;;31.40;;
49812;SDS011;35706;52.100;5.056;2022-08-19T06:00:55;61.38;;;31.15;;
49812;SDS011;35706;52.100;5.056;2022-08-19T06:03:41;61.08;;;31.35;;
49812;SDS011;35706;52.100;5.056;2022-08-19T06:06:27;62.92;;;32.75;;
49812;SDS011;35706;52.100;5.056;2022-08-19T06:09:13;69.72;;;32.22;;
49812;SDS011;35706;52.100;5.056;2022-08-19T06:11:59;67.03;;;33.08;;
49812;SDS011;35706;52.100;5.056;2022-08-19T06:14:45;76.38;;;33.28;;
49812;SDS011;35706;52.100;5.056;2022-08-19T06:17:30;71.60;;;32.80;;
49812;SDS011;35706;52.100;5.056;2022-08-19T06:20:16;72.18;;;34.00;;
49812;SDS011;35706;52.100;5.056;2022-08-19T06:23:03;74.57;;;35.17;;
49812;SDS011;35706;52.100;5.056;2022-08-19T06:25:49;80.38;;;36.45;;
49812;SDS011;35706;52.100;5.056;2022-08-19T06:28:34;83.72;;;38.88;;
49812;SDS011;35706;52.100;5.056;2022-08-19T06:31:21;87.07;;;39.67;;
49812;SDS011;35706;52.100;5.056;2022-08-19T06:34:09;93.53;;;40.60;;
49812;SDS011;35706;52.100;5.056;2022-08-19T06:36:55;93.70;;;41.47;;
49812;SDS011;35706;52.100;5.056;2022-08-19T06:39:43;86.78;;;40.17;;
49812;SDS011;35706;52.100;5.056;2022-08-19T06:42:29;91.70;;;41.45;;
49812;SDS011;35706;52.100;5.056;2022-08-19T06:45:16;96.32;;;42.65;;
49812;SDS011;35706;52.100;5.056;2022-08-19T06:48:02;95.75;;;42.17;;
49812;SDS011;35706;52.100;5.056;2022-08-19T06:50:48;96.25;;;45.05;;
49812;SDS011;35706;52.100;5.056;2022-08-19T06:53:36;97.00;;;43.90;;
49812;SDS011;35706;52.100;5.056;2022-08-19T06:56:26;101.15;;;45.97;;
49812;SDS011;35706;52.100;5.056;2022-08-19T06:59:20;91.03;;;41.63;;
49812;SDS011;35706;52.100;5.056;2022-08-19T07:02:08;99.00;;;43.63;;
49812;SDS011;35706;52.100;5.056;2022-08-19T07:04:53;93.55;;;42.42;;
49812;SDS011;35706;52.100;5.056;2022-08-19T07:07:40;94.78;;;44.85;;
49812;SDS011;35706;52.100;5.056;2022-08-19T07:10:28;97.75;;;45.72;;
49812;SDS011;35706;52.100;5.056;2022-08-19T07:13:19;93.32;;;45.95;;
49812;SDS011;35706;52.100;5.056;2022-08-19T07:16:07;91.60;;;44.30;;
49812;SDS011;35706;52.100;5.056;2022-08-19T07:18:53;92.88;;;44.50;;
49812;SDS011;35706;52.100;5.056;2022-08-19T07:21:39;91.03;;;43.63;;
49812;SDS011;35706;52.100;5.056;2022-08-19T07:24:25;96.03;;;44.17;;
49812;SDS011;35706;52.100;5.056;2022-08-19T07:27:12;86.25;;;41.58;;
49812;SDS011;35706;52.100;5.056;2022-08-19T07:29:58;85.85;;;42.70;;
49812;SDS011;35706;52.100;5.056;2022-08-19T07:32:45;89.35;;;43.20;;
49812;SDS011;35706;52.100;5.056;2022-08-19T07:35:30;93.07;;;43.65;;
49812;SDS011;35706;52.100;5.056;2022-08-19T07:38:17;84.63;;;42.35;;
49812;SDS011;35706;52.100;5.056;2022-08-19T07:41:03;95.38;;;44.47;;
49812;SDS011;35706;52.100;5.056;2022-08-19T07:43:48;84.93;;;42.30;;
49812;SDS011;35706;52.100;5.056;2022-08-19T07:46:35;84.40;;;41.20;;
49812;SDS011;35706;52.100;5.056;2022-08-19T07:49:23;86.03;;;43.03;;
49812;SDS011;35706;52.100;5.056;2022-08-19T07:52:09;89.20;;;44.13;;
49812;SDS011;35706;52.100;5.056;2022-08-19T07:54:55;85.35;;;43.10;;
49812;SDS011;35706;52.100;5.056;2022-08-19T07:57:41;86.53;;;45.22;;
49812;SDS011;35706;52.100;5.056;2022-08-19T08:00:13;91.40;;;43.83;;
49812;SDS011;35706;52.100;5.056;2022-08-19T08:02:39;87.35;;;43.55;;
49812;SDS011;35706;52.100;5.056;2022-08-19T08:05:07;88.47;;;43.67;;
49812;SDS011;35706;52.100;5.056;2022-08-19T08:07:51;87.28;;;44.13;;
49812;SDS011;35706;52.100;5.056;2022-08-19T08:10:35;85.20;;;44.47;;
49812;SDS011;35706;52.100;5.056;2022-08-19T08:13:00;86.22;;;42.83;;
49812;SDS011;35706;52.100;5.056;2022-08-19T08:15:26;82.32;;;41.20;;
49812;SDS011;35706;52.100;5.056;2022-08-19T08:17:51;79.28;;;41.05;;
49812;SDS011;35706;52.100;5.056;2022-08-19T08:20:17;76.57;;;39.45;;
49812;SDS011;35706;52.100;5.056;2022-08-19T08:22:43;78.47;;;40.08;;
49812;SDS011;35706;52.100;5.056;2022-08-19T08:25:28;76.50;;;39.70;;
49812;SDS011;35706;52.100;5.056;2022-08-19T08:27:56;77.57;;;40.55;;
49812;SDS011;35706;52.100;5.056;2022-08-19T08:30:22;73.38;;;39.35;;
49812;SDS011;35706;52.100;5.056;2022-08-19T08:32:49;76.10;;;39.33;;
49812;SDS011;35706;52.100;5.056;2022-08-19T08:35:16;69.43;;;38.65;;
49812;SDS011;35706;52.100;5.056;2022-08-19T08:37:44;58.45;;;34.72;;
49812;SDS011;35706;52.100;5.056;2022-08-19T08:40:18;64.50;;;36.92;;
49812;SDS011;35706;52.100;5.056;2022-08-19T08:42:55;66.53;;;34.53;;
49812;SDS011;35706;52.100;5.056;2022-08-19T08:45:27;55.65;;;30.88;;
49812;SDS011;35706;52.100;5.056;2022-08-19T08:47:54;60.38;;;31.23;;
49812;SDS011;35706;52.100;5.056;2022-08-19T08:50:25;54.47;;;30.98;;
49812;SDS011;35706;52.100;5.056;2022-08-19T08:52:57;57.22;;;32.35;;
49812;SDS011;35706;52.100;5.056;2022-08-19T08:55:25;53.42;;;31.20;;
49812;SDS011;35706;52.100;5.056;2022-08-19T08:57:55;61.83;;;30.83;;
49812;SDS011;35706;52.100;5.056;2022-08-19T09:00:32;59.85;;;31.65;;
49812;SDS011;35706;52.100;5.056;2022-08-19T09:02:59;52.30;;;31.10;;
49812;SDS011;35706;52.100;5.056;2022-08-19T09:05:32;50.45;;;30.50;;
49812;SDS011;35706;52.100;5.056;2022-08-19T09:08:16;53.88;;;31.63;;
49812;SDS011;35706;52.100;5.056;2022-08-19T09:10:53;64.43;;;34.55;;
49812;SDS011;35706;52.100;5.056;2022-08-19T09:16:02;55.40;;;33.35;;
49812;SDS011;35706;52.100;5.056;2022-08-19T09:18:44;54.25;;;33.35;;
49812;SDS011;35706;52.100;5.056;2022-08-19T09:21:18;57.00;;;33.55;;
49812;SDS011;35706;52.100;5.056;2022-08-19T09:23:45;53.00;;;32.15;;
49812;SDS011;35706;52.100;5.056;2022-08-19T09:26:12;54.22;;;31.38;;
49812;SDS011;35706;52.100;5.056;2022-08-19T09:28:40;54.92;;;32.03;;
49812;SDS011;35706;52.100;5.056;2022-08-19T09:31:12;49.08;;;31.50;;
49812;SDS011;35706;52.100;5.056;2022-08-19T09:36:06;50.15;;;30.40;;
49812;SDS011;35706;52.100;5.056;2022-08-19T09:38:33;46.78;;;28.05;;
49812;SDS011;35706;52.100;5.056;2022-08-19T09:41:10;47.58;;;29.48;;
49812;SDS011;35706;52.100;5.056;2022-08-19T09:43:39;51.22;;;29.02;;
49812;SDS011;35706;52.100;5.056;2022-08-19T09:46:07;50.58;;;27.85;;
49812;SDS011;35706;52.100;5.056;2022-08-19T09:48:34;45.78;;;29.00;;
49812;SDS011;35706;52.100;5.056;2022-08-19T09:51:02;43.60;;;28.23;;
49812;SDS011;35706;52.100;5.056;2022-08-19T09:53:29;42.40;;;26.25;;
49812;SDS011;35706;52.100;5.056;2022-08-19T09:55:54;39.50;;;26.73;;
49812;SDS011;35706;52.100;5.056;2022-08-19T09:58:20;41.80;;;26.67;;
49812;SDS011;35706;52.100;5.056;2022-08-19T10:00:45;33.17;;;21.10;;
49812;SDS011;35706;52.100;5.056;2022-08-19T10:03:11;33.75;;;20.45;;
49812;SDS011;35706;52.100;5.056;2022-08-19T10:05:36;34.00;;;23.60;;
49812;SDS011;35706;52.100;5.056;2022-08-19T10:08:21;41.97;;;23.52;;
49812;SDS011;35706;52.100;5.056;2022-08-19T10:10:53;39.25;;;22.20;;
49812;SDS011;35706;52.100;5.056;2022-08-19T10:13:20;25.40;;;19.48;;
49812;SDS011;35706;52.100;5.056;2022-08-19T10:15:48;31.13;;;17.75;;
49812;SDS011;35706;52.100;5.056;2022-08-19T10:18:15;22.15;;;16.77;;
49812;SDS011;35706;52.100;5.056;2022-08-19T10:20:42;16.00;;;12.65;;
49812;SDS011;35706;52.100;5.056;2022-08-19T10:23:08;17.73;;;12.02;;
49812;SDS011;35706;52.100;5.056;2022-08-19T10:25:33;18.52;;;12.75;;
49812;SDS011;35706;52.100;5.056;2022-08-19T10:27:59;18.95;;;12.40;;
49812;SDS011;35706;52.100;5.056;2022-08-19T10:30:25;21.10;;;11.98;;
49812;SDS011;35706;52.100;5.056;2022-08-19T10:32:50;20.25;;;14.10;;
49812;SDS011;35706;52.100;5.056;2022-08-19T10:35:15;23.00;;;13.73;;
49812;SDS011;35706;52.100;5.056;2022-08-19T10:37:42;33.80;;;19.48;;
49812;SDS011;35706;52.100;5.056;2022-08-19T10:40:07;22.05;;;16.77;;
49812;SDS011;35706;52.100;5.056;2022-08-19T10:42:35;21.42;;;13.70;;
49812;SDS011;35706;52.100;5.056;2022-08-19T10:45:01;19.02;;;14.13;;
49812;SDS011;35706;52.100;5.056;2022-08-19T10:47:28;22.08;;;12.82;;
49812;SDS011;35706;52.100;5.056;2022-08-19T10:49:53;20.63;;;13.32;;
49812;SDS011;35706;52.100;5.056;2022-08-19T10:52:42;19.10;;;11.93;;
49812;SDS011;35706;52.100;5.056;2022-08-19T10:55:12;23.20;;;15.30;;
49812;SDS011;35706;52.100;5.056;2022-08-19T10:57:56;23.02;;;14.60;;
49812;SDS011;35706;52.100;5.056;2022-08-19T11:00:22;15.52;;;12.00;;
49812;SDS011;35706;52.100;5.056;2022-08-19T11:02:49;18.60;;;12.63;;
49812;SDS011;35706;52.100;5.056;2022-08-19T11:05:14;16.15;;;13.63;;
49812;SDS011;35706;52.100;5.056;2022-08-19T11:07:40;26.13;;;14.85;;
49812;SDS011;35706;52.100;5.056;2022-08-19T11:10:08;18.33;;;12.30;;
49812;SDS011;35706;52.100;5.056;2022-08-19T11:12:36;16.88;;;11.52;;
49812;SDS011;35706;52.100;5.056;2022-08-19T11:15:04;20.00;;;14.20;;
49812;SDS011;35706;52.100;5.056;2022-08-19T11:17:30;22.02;;;14.25;;
49812;SDS011;35706;52.100;5.056;2022-08-19T11:19:56;17.17;;;14.80;;
49812;SDS011;35706;52.100;5.056;2022-08-19T11:22:21;22.23;;;13.13;;
49812;SDS011;35706;52.100;5.056;2022-08-19T11:24:47;18.98;;;11.95;;
49812;SDS011;35706;52.100;5.056;2022-08-19T11:27:12;15.07;;;12.95;;
49812;SDS011;35706;52.100;5.056;2022-08-19T11:29:39;20.85;;;14.05;;
49812;SDS011;35706;52.100;5.056;2022-08-19T11:32:06;26.23;;;13.85;;
49812;SDS011;35706;52.100;5.056;2022-08-19T11:34:39;21.98;;;14.32;;
49812;SDS011;35706;52.100;5.056;2022-08-19T11:37:05;22.02;;;13.52;;
49812;SDS011;35706;52.100;5.056;2022-08-19T11:39:32;17.52;;;11.25;;
49812;SDS011;35706;52.100;5.056;2022-08-19T11:41:59;12.93;;;9.55;;
49812;SDS011;35706;52.100;5.056;2022-08-19T11:44:26;12.90;;;9.45;;
49812;SDS011;35706;52.100;5.056;2022-08-19T11:46:51;13.77;;;7.90;;
49812;SDS011;35706;52.100;5.056;2022-08-19T11:49:18;16.70;;;8.07;;
49812;SDS011;35706;52.100;5.056;2022-08-19T11:51:45;9.35;;;6.68;;
49812;SDS011;35706;52.100;5.056;2022-08-19T11:54:11;8.93;;;8.18;;
49812;SDS011;35706;52.100;5.056;2022-08-19T11:56:39;12.77;;;9.00;;
49812;SDS011;35706;52.100;5.056;2022-08-19T11:59:05;12.23;;;8.60;;
49812;SDS011;35706;52.100;5.056;2022-08-19T12:01:32;15.68;;;8.85;;
49812;SDS011;35706;52.100;5.056;2022-08-19T12:03:58;17.85;;;8.30;;
49812;SDS011;35706;52.100;5.056;2022-08-19T12:06:24;9.77;;;6.93;;
49812;SDS011;35706;52.100;5.056;2022-08-19T12:08:53;9.77;;;7.10;;
49812;SDS011;35706;52.100;5.056;2022-08-19T12:11:19;11.23;;;6.75;;
49812;SDS011;35706;52.100;5.056;2022-08-19T12:13:45;9.13;;;7.00;;
49812;SDS011;35706;52.100;5.056;2022-08-19T12:16:18;10.57;;;6.18;;
49812;SDS011;35706;52.100;5.056;2022-08-19T12:18:45;10.70;;;6.78;;
49812;SDS011;35706;52.100;5.056;2022-08-19T12:21:12;7.85;;;5.68;;
49812;SDS011;35706;52.100;5.056;2022-08-19T12:23:39;8.88;;;4.97;;
49812;SDS011;35706;52.100;5.056;2022-08-19T12:26:05;8.00;;;5.43;;
49812;SDS011;35706;52.100;5.056;2022-08-19T12:28:31;7.93;;;4.63;;
49812;SDS011;35706;52.100;5.056;2022-08-19T12:30:56;7.60;;;5.32;;
49812;SDS011;35706;52.100;5.056;2022-08-19T12:33:22;8.00;;;5.50;;
49812;SDS011;35706;52.100;5.056;2022-08-19T12:35:51;7.78;;;4.90;;
49812;SDS011;35706;52.100;5.056;2022-08-19T12:38:17;9.32;;;4.55;;
49812;SDS011;35706;52.100;5.056;2022-08-19T12:40:45;9.68;;;5.18;;
49812;SDS011;35706;52.100;5.056;2022-08-19T12:43:11;8.80;;;4.50;;
49812;SDS011;35706;52.100;5.056;2022-08-19T12:45:38;9.27;;;4.07;;
49812;SDS011;35706;52.100;5.056;2022-08-19T12:48:04;6.63;;;3.40;;
49812;SDS011;35706;52.100;5.056;2022-08-19T12:50:29;10.23;;;2.95;;
49812;SDS011;35706;52.100;5.056;2022-08-19T12:52:55;8.13;;;4.32;;
49812;SDS011;35706;52.100;5.056;2022-08-19T12:55:21;9.23;;;3.42;;
49812;SDS011;35706;52.100;5.056;2022-08-19T12:57:47;8.27;;;3.50;;
49812;SDS011;35706;52.100;5.056;2022-08-19T13:00:15;3.10;;;2.13;;
49812;SDS011;35706;52.100;5.056;2022-08-19T13:02:43;3.95;;;2.00;;
49812;SDS011;35706;52.100;5.056;2022-08-19T13:05:11;6.60;;;1.52;;
49812;SDS011;35706;52.100;5.056;2022-08-19T13:07:40;3.30;;;2.10;;
49812;SDS011;35706;52.100;5.056;2022-08-19T13:10:11;3.15;;;1.38;;
49812;SDS011;35706;52.100;5.056;2022-08-19T13:12:40;3.13;;;0.98;;
49812;SDS011;35706;52.100;5.056;2022-08-19T13:15:06;4.25;;;1.05;;
49812;SDS011;35706;52.100;5.056;2022-08-19T13:17:33;2.40;;;1.17;;
49812;SDS011;35706;52.100;5.056;2022-08-19T13:19:59;1.45;;;0.63;;
49812;SDS011;35706;52.100;5.056;2022-08-19T13:22:25;3.38;;;1.10;;
49812;SDS011;35706;52.100;5.056;2022-08-19T13:24:50;2.70;;;0.75;;
49812;SDS011;35706;52.100;5.056;2022-08-19T13:27:15;2.53;;;0.90;;
49812;SDS011;35706;52.100;5.056;2022-08-19T13:29:41;4.32;;;0.70;;
49812;SDS011;35706;52.100;5.056;2022-08-19T13:32:25;4.38;;;0.70;;
49812;SDS011;35706;52.100;5.056;2022-08-19T13:35:09;2.15;;;0.50;;
49812;SDS011;35706;52.100;5.056;2022-08-19T13:37:34;1.40;;;0.47;;
49812;SDS011;35706;52.100;5.056;2022-08-19T13:40:14;1.08;;;0.50;;
49812;SDS011;35706;52.100;5.056;2022-08-19T13:42:44;2.47;;;0.50;;
49812;SDS011;35706;52.100;5.056;2022-08-19T13:45:11;4.68;;;1.17;;
49812;SDS011;35706;52.100;5.056;2022-08-19T13:47:38;3.72;;;1.00;;
49812;SDS011;35706;52.100;5.056;2022-08-19T13:50:13;2.75;;;1.10;;
49812;SDS011;35706;52.100;5.056;2022-08-19T13:52:41;2.53;;;0.90;;
49812;SDS011;35706;52.100;5.056;2022-08-19T13:55:07;1.40;;;0.80;;
49812;SDS011;35706;52.100;5.056;2022-08-19T13:57:33;1.90;;;1.40;;
49812;SDS011;35706;52.100;5.056;2022-08-19T13:59:59;2.65;;;1.40;;
49812;SDS011;35706;52.100;5.056;2022-08-19T14:02:25;3.92;;;1.92;;
49812;SDS011;35706;52.100;5.056;2022-08-19T14:04:51;4.65;;;1.65;;
49812;SDS011;35706;52.100;5.056;2022-08-19T14:07:16;4.53;;;1.02;;
49812;SDS011;35706;52.100;5.056;2022-08-19T14:09:42;3.63;;;1.02;;
49812;SDS011;35706;52.100;5.056;2022-08-19T14:12:07;4.65;;;0.98;;
49812;SDS011;35706;52.100;5.056;2022-08-19T14:14:36;2.17;;;1.10;;
49812;SDS011;35706;52.100;5.056;2022-08-19T14:17:05;3.72;;;1.67;;
49812;SDS011;35706;52.100;5.056;2022-08-19T14:19:31;2.00;;;1.20;;
49812;SDS011;35706;52.100;5.056;2022-08-19T14:21:56;1.45;;;1.02;;
49812;SDS011;35706;52.100;5.056;2022-08-19T14:24:22;3.80;;;1.60;;
49812;SDS011;35706;52.100;5.056;2022-08-19T14:26:47;2.67;;;1.95;;
49812;SDS011;35706;52.100;5.056;2022-08-19T14:29:13;2.80;;;1.25;;
49812;SDS011;35706;52.100;5.056;2022-08-19T14:31:38;3.42;;;1.20;;
49812;SDS011;35706;52.100;5.056;2022-08-19T14:34:05;1.60;;;1.10;;
49812;SDS011;35706;52.100;5.056;2022-08-19T14:36:31;2.65;;;1.00;;
49812;SDS011;35706;52.100;5.056;2022-08-19T14:38:59;2.22;;;0.85;;
49812;SDS011;35706;52.100;5.056;2022-08-19T14:41:25;1.30;;;0.80;;
49812;SDS011;35706;52.100;5.056;2022-08-19T14:43:52;1.55;;;0.90;;
49812;SDS011;35706;52.100;5.056;2022-08-19T14:46:19;1.40;;;0.65;;
49812;SDS011;35706;52.100;5.056;2022-08-19T14:48:46;1.52;;;0.75;;
49812;SDS011;35706;52.100;5.056;2022-08-19T14:51:12;3.33;;;3.00;;
49812;SDS011;35706;52.100;5.056;2022-08-19T14:53:38;2.10;;;0.90;;
49812;SDS011;35706;52.100;5.056;2022-08-19T14:56:08;1.60;;;1.00;;
49812;SDS011;35706;52.100;5.056;2022-08-19T14:58:34;2.35;;;1.20;;
49812;SDS011;35706;52.100;5.056;2022-08-19T15:01:00;1.70;;;1.48;;
49812;SDS011;35706;52.100;5.056;2022-08-19T15:03:26;3.72;;;1.80;;
49812;SDS011;35706;52.100;5.056;2022-08-19T15:05:52;3.45;;;1.80;;
49812;SDS011;35706;52.100;5.056;2022-08-19T15:08:18;4.03;;;2.40;;
49812;SDS011;35706;52.100;5.056;2022-08-19T15:10:44;4.82;;;2.83;;
49812;SDS011;35706;52.100;5.056;2022-08-19T15:13:10;3.78;;;2.72;;
49812;SDS011;35706;52.100;5.056;2022-08-19T15:15:36;2.75;;;1.60;;
49812;SDS011;35706;52.100;5.056;2022-08-19T15:18:02;3.50;;;2.13;;